Time;durP1;ratioP1;P1;durP2;ratioP2;P2;SDS_P1;SDS_P2;PMS_P1;PMS_P2;Temp;Humidity;BMP_temperature;BMP_pressure;BME280_temperature;BME280_humidity;BME280_pressure;Samples;Min_cycle;Max_cycle;Signal;HPM_P1;HPM_P2
2022/08/30 00:01:33;;;;;;;5.35;4.80;;;23.00;53.60;;;;;;5097946;28;20438;-83
2022/08/30 00:04:00;;;;;;;4.97;4.53;;;22.90;53.70;;;;;;5095866;28;20274;-82
2022/08/30 00:06:27;;;;;;;5.18;4.70;;;22.80;56.90;;;;;;5093584;28;20186;-83
2022/08/30 00:08:54;;;;;;;4.95;4.55;;;22.80;58.10;;;;;;5095928;28;20248;-84
2022/08/30 00:11:25;;;;;;;5.07;4.57;;;22.80;54.40;;;;;;5097621;28;20214;-84
2022/08/30 00:13:52;;;;;;;5.63;5.05;;;22.80;54.30;;;;;;5099412;28;20208;-83
2022/08/30 00:16:20;;;;;;;4.50;4.07;;;22.90;54.80;;;;;;5096267;28;20281;-83
2022/08/30 00:18:46;;;;;;;5.00;4.50;;;22.90;54.30;;;;;;5096130;28;20186;-84
2022/08/30 00:21:13;;;;;;;5.03;4.55;;;22.70;53.60;;;;;;5097572;28;20186;-83
2022/08/30 00:23:40;;;;;;;5.07;4.68;;;22.60;54.30;;;;;;5097135;28;20237;-82
2022/08/30 00:26:06;;;;;;;5.10;4.70;;;22.50;53.00;;;;;;5091044;28;20195;-83
2022/08/30 00:28:36;;;;;;;6.65;4.35;;;22.50;54.50;;;;;;5095952;28;20244;-82
2022/08/30 00:31:02;;;;;;;4.97;4.45;;;22.40;53.10;;;;;;5092944;28;20260;-83
2022/08/30 00:33:28;;;;;;;5.07;4.57;;;22.30;53.70;;;;;;5096943;28;20207;-84
2022/08/30 00:35:55;;;;;;;4.70;4.20;;;22.20;56.40;;;;;;5092576;28;20278;-83
2022/08/30 00:38:23;;;;;;;6.03;4.38;;;22.20;56.70;;;;;;5095234;28;20597;-83
2022/08/30 00:40:50;;;;;;;5.28;4.80;;;22.20;54.40;;;;;;5096186;28;20175;-83
2022/08/30 00:43:24;;;;;;;4.63;4.20;;;22.20;53.80;;;;;;5096394;28;20396;-83
2022/08/30 00:45:50;;;;;;;4.53;4.13;;;22.30;54.10;;;;;;5091087;28;20186;-84
2022/08/30 00:48:16;;;;;;;4.82;4.43;;;22.30;53.70;;;;;;5096728;28;20179;-82
2022/08/30 00:50:50;;;;;;;5.07;4.47;;;22.30;53.80;;;;;;5084992;28;20283;-84
2022/08/30 00:53:27;;;;;;;5.72;4.13;;;22.20;53.70;;;;;;5093484;28;20214;-82
2022/08/30 00:55:54;;;;;;;4.82;4.22;;;22.30;53.40;;;;;;5096283;28;20178;-83
2022/08/30 00:58:26;;;;;;;4.85;4.38;;;22.30;51.90;;;;;;5088779;28;20211;-83
2022/08/30 01:00:55;;;;;;;4.72;4.32;;;22.40;52.40;;;;;;5089589;28;20186;-83
2022/08/30 01:03:22;;;;;;;5.15;4.75;;;22.60;52.20;;;;;;5094806;28;20282;-83
2022/08/30 01:05:50;;;;;;;5.22;4.45;;;22.60;53.00;;;;;;5091028;28;20190;-83
2022/08/30 01:08:17;;;;;;;5.82;4.53;;;22.50;53.10;;;;;;5095645;28;20175;-84
2022/08/30 01:10:43;;;;;;;4.55;4.25;;;22.50;54.70;;;;;;5095799;28;20717;-83
2022/08/30 01:13:12;;;;;;;4.68;4.28;;;22.50;52.50;;;;;;5095176;28;20193;-83
2022/08/30 01:15:38;;;;;;;4.78;4.32;;;22.50;53.00;;;;;;5101353;28;20654;-82
2022/08/30 01:18:04;;;;;;;4.53;4.13;;;22.60;52.60;;;;;;5100983;28;20187;-83
2022/08/30 01:20:43;;;;;;;5.18;4.75;;;22.50;50.70;;;;;;5098755;28;20195;-83
2022/08/30 01:23:15;;;;;;;4.95;4.55;;;22.50;52.30;;;;;;5091460;28;20685;-83
2022/08/30 01:25:42;;;;;;;4.85;4.15;;;22.40;50.80;;;;;;5099289;28;20247;-83
2022/08/30 01:28:14;;;;;;;5.18;4.78;;;22.30;51.50;;;;;;5093442;28;20232;-82
2022/08/30 01:30:41;;;;;;;5.03;4.55;;;22.40;52.20;;;;;;5093968;28;20214;-84
2022/08/30 01:33:09;;;;;;;5.25;4.65;;;22.30;51.70;;;;;;5099331;28;20183;-84
2022/08/30 01:35:56;;;;;;;5.22;4.72;;;22.10;51.00;;;;;;5099966;28;20189;-83
2022/08/30 01:38:35;;;;;;;4.63;4.22;;;22.00;52.10;;;;;;5094366;28;20190;-83
2022/08/30 01:41:10;;;;;;;4.50;4.00;;;22.00;52.90;;;;;;5096762;28;20668;-83
2022/08/30 01:43:36;;;;;;;5.43;4.53;;;22.10;51.30;;;;;;5102313;28;20205;-83
2022/08/30 01:46:02;;;;;;;4.75;4.25;;;22.10;51.10;;;;;;5101906;28;20216;-83
2022/08/30 01:48:28;;;;;;;4.40;4.10;;;22.10;51.00;;;;;;5099822;28;20674;-83
2022/08/30 01:50:54;;;;;;;4.95;4.55;;;22.00;51.40;;;;;;5097777;28;20213;-82
2022/08/30 01:53:20;;;;;;;4.35;4.03;;;22.00;51.30;;;;;;5099756;28;20225;-83
2022/08/30 01:55:46;;;;;;;4.53;4.15;;;21.90;51.60;;;;;;5099817;28;20282;-82
2022/08/30 01:58:12;;;;;;;6.28;4.63;;;21.80;51.70;;;;;;5099815;28;20211;-82
2022/08/30 02:00:39;;;;;;;5.15;4.65;;;21.80;52.00;;;;;;5095571;28;20198;-83
2022/08/30 02:03:05;;;;;;;4.80;4.25;;;21.80;52.50;;;;;;5096683;28;20206;-84
2022/08/30 02:05:32;;;;;;;4.47;4.07;;;21.60;52.80;;;;;;5098814;28;20385;-82
2022/08/30 02:07:58;;;;;;;4.10;3.80;;;21.60;53.30;;;;;;5099736;28;20194;-82
2022/08/30 02:10:24;;;;;;;4.53;4.13;;;21.60;52.80;;;;;;5100203;28;20210;-83
2022/08/30 02:12:50;;;;;;;5.55;4.72;;;21.60;52.30;;;;;;5100620;28;20193;-84
2022/08/30 02:15:16;;;;;;;6.40;4.03;;;21.60;52.50;;;;;;5098436;28;20203;-84
2022/08/30 02:17:42;;;;;;;4.57;4.18;;;21.60;52.30;;;;;;5098657;28;20247;-83
2022/08/30 02:20:08;;;;;;;4.88;4.47;;;21.50;53.00;;;;;;5099903;28;20191;-83
2022/08/30 02:22:34;;;;;;;6.72;4.43;;;21.40;53.80;;;;;;5099254;28;20185;-83
2022/08/30 02:25:00;;;;;;;5.55;4.35;;;21.30;54.10;;;;;;5088676;28;20219;-83
2022/08/30 02:27:26;;;;;;;7.55;4.40;;;21.20;54.50;;;;;;5097449;28;20179;-83
2022/08/30 02:29:52;;;;;;;6.22;4.38;;;21.10;55.30;;;;;;5096654;28;20208;-82
2022/08/30 02:32:18;;;;;;;4.70;4.30;;;21.10;55.30;;;;;;5095431;28;20182;-84
2022/08/30 02:34:46;;;;;;;4.40;4.00;;;21.00;55.30;;;;;;5096714;28;20201;-83
2022/08/30 02:37:12;;;;;;;4.30;3.88;;;20.90;55.30;;;;;;5102248;28;20207;-83
2022/08/30 02:39:38;;;;;;;4.50;4.10;;;21.00;55.40;;;;;;5107747;28;20186;-84
2022/08/30 02:42:04;;;;;;;4.95;3.92;;;21.00;55.30;;;;;;5106780;28;20219;-84
2022/08/30 02:44:30;;;;;;;4.55;4.15;;;21.00;55.20;;;;;;5100478;28;20209;-84
2022/08/30 02:46:55;;;;;;;4.30;3.90;;;20.90;55.40;;;;;;5099437;28;20193;-84
2022/08/30 02:49:21;;;;;;;4.68;3.90;;;20.80;55.80;;;;;;5098699;28;20234;-83
2022/08/30 02:51:47;;;;;;;6.03;4.28;;;20.80;55.80;;;;;;5096174;28;20213;-83
2022/08/30 02:54:18;;;;;;;5.28;3.92;;;20.80;56.30;;;;;;5096963;28;20343;-83
2022/08/30 02:56:48;;;;;;;5.13;3.80;;;20.80;56.20;;;;;;5095507;28;20205;-84
2022/08/30 02:59:15;;;;;;;4.80;4.40;;;20.80;55.80;;;;;;5099770;28;20845;-83
2022/08/30 03:01:41;;;;;;;4.97;4.20;;;20.90;55.90;;;;;;5092499;28;20200;-82
2022/08/30 03:04:08;;;;;;;4.40;4.03;;;20.80;55.70;;;;;;5098261;28;20209;-83
2022/08/30 03:06:34;;;;;;;5.90;3.88;;;20.80;55.80;;;;;;5091235;28;20175;-83
2022/08/30 03:09:00;;;;;;;4.68;4.10;;;20.80;55.80;;;;;;5098374;28;20223;-83
2022/08/30 03:11:26;;;;;;;4.32;3.88;;;20.80;55.90;;;;;;5099131;28;20210;-84
2022/08/30 03:13:51;;;;;;;3.63;3.42;;;20.90;55.50;;;;;;5099465;28;20202;-82
2022/08/30 03:16:17;;;;;;;4.43;4.03;;;21.00;55.40;;;;;;5096829;28;20194;-83
2022/08/30 03:18:43;;;;;;;4.80;3.88;;;21.10;55.40;;;;;;5094170;28;20190;-83
2022/08/30 03:21:10;;;;;;;5.50;4.07;;;21.00;55.60;;;;;;5096943;28;20290;-83
2022/08/30 03:23:36;;;;;;;4.60;4.20;;;20.90;55.90;;;;;;5094997;28;20482;-83
2022/08/30 03:26:02;;;;;;;5.25;4.15;;;20.70;56.90;;;;;;5094020;28;20195;-82
2022/08/30 03:28:28;;;;;;;6.07;4.45;;;20.60;57.50;;;;;;5088967;28;20205;-83
2022/08/30 03:30:54;;;;;;;4.75;4.30;;;20.40;57.70;;;;;;5096384;28;20274;-82
2022/08/30 03:33:20;;;;;;;4.38;3.97;;;20.40;58.00;;;;;;5097170;28;20263;-82
2022/08/30 03:35:46;;;;;;;4.88;4.47;;;20.40;57.50;;;;;;5096840;28;20217;-83
2022/08/30 03:38:12;;;;;;;4.20;3.80;;;20.50;57.40;;;;;;5097298;28;20184;-83
2022/08/30 03:40:38;;;;;;;4.40;3.80;;;20.40;57.80;;;;;;5087294;28;20765;-83
2022/08/30 03:43:04;;;;;;;4.13;3.83;;;20.40;57.70;;;;;;5098199;28;20302;-82
2022/08/30 03:45:30;;;;;;;6.20;4.15;;;20.30;58.00;;;;;;5098924;28;20198;-84
2022/08/30 03:47:55;;;;;;;5.78;4.28;;;20.40;58.20;;;;;;5097979;28;20201;-84
2022/08/30 03:50:21;;;;;;;6.97;4.82;;;20.50;57.70;;;;;;5095873;28;20232;-84
2022/08/30 03:52:47;;;;;;;5.65;4.22;;;20.40;57.90;;;;;;5095369;28;20292;-84
2022/08/30 03:55:13;;;;;;;4.30;3.90;;;20.40;57.90;;;;;;5096375;28;20967;-83
2022/08/30 03:57:41;;;;;;;4.95;4.07;;;20.30;59.20;;;;;;5096275;28;20192;-83
2022/08/30 04:00:07;;;;;;;4.28;3.70;;;20.30;58.80;;;;;;5097392;28;20214;-82
2022/08/30 04:02:33;;;;;;;5.53;4.07;;;20.20;58.50;;;;;;5098648;28;20196;-82
2022/08/30 04:04:59;;;;;;;5.32;4.45;;;20.30;59.30;;;;;;5096410;28;20381;-82
2022/08/30 04:07:24;;;;;;;4.60;4.10;;;20.20;58.90;;;;;;5092854;28;20182;-82
2022/08/30 04:09:50;;;;;;;5.10;4.30;;;20.20;58.60;;;;;;5095957;28;20210;-82
2022/08/30 04:12:16;;;;;;;6.72;4.40;;;20.20;58.60;;;;;;5097668;28;20253;-82
2022/08/30 04:14:42;;;;;;;5.00;4.50;;;20.30;59.10;;;;;;5098082;28;20600;-83
2022/08/30 04:17:07;;;;;;;4.47;4.07;;;20.30;58.60;;;;;;5092571;28;20187;-83
2022/08/30 04:19:33;;;;;;;4.53;4.13;;;20.20;58.70;;;;;;5079594;28;20278;-83
2022/08/30 04:21:59;;;;;;;4.45;4.05;;;20.20;59.00;;;;;;5097312;28;20207;-82
2022/08/30 04:24:24;;;;;;;5.15;4.50;;;20.20;59.10;;;;;;5096305;28;20211;-82
2022/08/30 04:26:50;;;;;;;4.38;3.97;;;20.20;59.00;;;;;;5092325;28;20193;-82
2022/08/30 04:29:16;;;;;;;5.57;4.20;;;20.20;58.90;;;;;;5094971;28;20417;-83
2022/08/30 04:31:43;;;;;;;6.00;4.03;;;20.20;58.90;;;;;;5092498;28;20201;-83
2022/08/30 04:34:10;;;;;;;4.10;3.75;;;20.30;58.50;;;;;;5094697;28;20221;-84
2022/08/30 04:36:36;;;;;;;5.32;4.40;;;20.30;58.40;;;;;;5093187;28;20179;-84
2022/08/30 04:39:01;;;;;;;4.70;4.22;;;20.30;58.50;;;;;;5101212;28;20175;-84
2022/08/30 04:41:27;;;;;;;4.63;4.13;;;20.30;58.20;;;;;;5108828;28;20287;-84
2022/08/30 04:43:53;;;;;;;8.52;4.28;;;20.30;58.20;;;;;;5101782;28;20246;-84
2022/08/30 04:46:19;;;;;;;5.03;4.10;;;20.30;58.00;;;;;;5095117;28;20184;-83
2022/08/30 04:48:45;;;;;;;6.15;4.22;;;20.30;57.80;;;;;;5097654;28;20315;-83
2022/08/30 04:51:14;;;;;;;4.47;4.10;;;20.30;58.60;;;;;;5094670;28;20219;-85
2022/08/30 04:53:41;;;;;;;4.32;4.03;;;20.30;58.20;;;;;;5094517;28;20219;-84
2022/08/30 04:56:16;;;;;;;4.57;4.18;;;20.30;58.10;;;;;;5096243;28;20198;-83
2022/08/30 04:58:44;;;;;;;4.30;3.90;;;20.40;58.00;;;;;;5094894;28;20180;-83
2022/08/30 05:01:15;;;;;;;5.15;3.67;;;20.20;58.00;;;;;;5092200;28;20216;-82
2022/08/30 05:03:41;;;;;;;6.53;4.68;;;20.20;58.00;;;;;;5093769;28;20211;-84
2022/08/30 05:06:06;;;;;;;5.47;4.53;;;20.10;58.70;;;;;;5095144;28;20212;-82
2022/08/30 05:08:32;;;;;;;4.80;4.30;;;20.10;59.00;;;;;;5095137;28;20693;-83
2022/08/30 05:10:58;;;;;;;4.28;3.88;;;20.10;59.40;;;;;;5096031;28;20223;-83
2022/08/30 05:13:24;;;;;;;7.45;4.40;;;20.00;59.20;;;;;;5095539;28;20207;-83
2022/08/30 05:15:49;;;;;;;4.55;4.15;;;20.00;59.70;;;;;;5094057;28;20183;-83
2022/08/30 05:18:15;;;;;;;5.80;4.50;;;20.10;59.90;;;;;;5092575;28;20668;-83
2022/08/30 05:20:42;;;;;;;4.78;4.38;;;20.20;60.10;;;;;;5095015;28;20209;-83
2022/08/30 05:23:07;;;;;;;4.43;4.03;;;20.40;59.90;;;;;;5094772;28;20692;-83
2022/08/30 05:25:37;;;;;;;6.03;4.40;;;20.60;58.70;;;;;;5093904;28;20205;-83
2022/08/30 05:28:04;;;;;;;5.68;4.30;;;20.60;58.10;;;;;;5094206;28;20192;-84
2022/08/30 05:30:33;;;;;;;4.75;4.28;;;20.60;58.60;;;;;;5091872;28;20307;-84
2022/08/30 05:32:58;;;;;;;4.88;4.22;;;20.40;58.10;;;;;;5089676;28;20177;-83
2022/08/30 05:35:24;;;;;;;4.45;4.00;;;20.40;59.10;;;;;;5094900;28;20648;-84
2022/08/30 05:37:50;;;;;;;5.03;4.53;;;20.20;59.50;;;;;;5093257;28;20858;-82
2022/08/30 05:40:16;;;;;;;6.32;4.40;;;20.10;60.30;;;;;;5095426;28;20278;-83
2022/08/30 05:42:43;;;;;;;4.68;4.28;;;20.10;60.40;;;;;;5093171;28;20191;-83
2022/08/30 05:45:09;;;;;;;5.00;4.38;;;19.90;61.00;;;;;;5090932;28;20219;-83
2022/08/30 05:47:36;;;;;;;6.38;4.25;;;19.90;61.70;;;;;;5092601;28;20283;-82
2022/08/30 05:50:02;;;;;;;4.63;4.22;;;19.90;61.40;;;;;;5092568;28;20238;-83
2022/08/30 05:52:28;;;;;;;5.22;3.90;;;19.90;61.60;;;;;;5094499;28;20555;-81
2022/08/30 05:54:58;;;;;;;5.25;4.22;;;20.10;61.10;;;;;;5094314;28;20204;-84
2022/08/30 05:57:24;;;;;;;5.40;4.88;;;20.10;61.10;;;;;;5091324;28;20187;-83
2022/08/30 05:59:50;;;;;;;5.15;4.38;;;20.10;60.20;;;;;;5098216;28;20198;-84
2022/08/30 06:02:16;;;;;;;5.60;4.80;;;20.10;60.70;;;;;;5094843;28;20187;-83
2022/08/30 06:04:42;;;;;;;4.88;4.32;;;20.00;61.20;;;;;;5098369;28;20202;-83
2022/08/30 06:07:08;;;;;;;5.40;3.75;;;20.10;60.70;;;;;;5092641;28;20183;-82
2022/08/30 06:09:34;;;;;;;5.32;4.15;;;20.20;60.70;;;;;;5098319;28;20795;-82
2022/08/30 06:12:00;;;;;;;4.43;4.03;;;20.10;60.50;;;;;;5096117;28;20256;-83
2022/08/30 06:14:26;;;;;;;5.32;3.72;;;20.10;60.90;;;;;;5097865;28;20210;-84
2022/08/30 06:16:52;;;;;;;8.70;4.28;;;20.20;60.60;;;;;;5086782;28;20749;-83
2022/08/30 06:19:18;;;;;;;4.65;4.13;;;20.10;60.80;;;;;;5096183;28;20189;-83
2022/08/30 06:21:47;;;;;;;4.63;3.83;;;20.20;61.10;;;;;;5097557;28;20218;-83
2022/08/30 06:24:13;;;;;;;5.55;4.30;;;20.30;60.80;;;;;;5096797;28;20981;-83
2022/08/30 06:26:43;;;;;;;4.70;4.20;;;20.20;60.70;;;;;;5093997;28;20252;-83
2022/08/30 06:29:10;;;;;;;5.40;4.63;;;20.30;60.70;;;;;;5092330;28;20251;-84
2022/08/30 06:31:36;;;;;;;7.07;4.35;;;20.50;60.30;;;;;;5095881;28;20199;-83
2022/08/30 06:34:03;;;;;;;5.55;5.05;;;20.70;59.90;;;;;;5095134;28;20795;-84
2022/08/30 06:36:29;;;;;;;5.20;4.30;;;20.90;59.30;;;;;;5096907;28;20279;-84
2022/08/30 06:38:56;;;;;;;8.25;3.83;;;20.80;59.00;;;;;;5093938;28;20185;-84
2022/08/30 06:41:28;;;;;;;5.22;4.68;;;20.80;59.60;;;;;;5087767;28;20187;-85
2022/08/30 06:43:55;;;;;;;6.50;4.38;;;20.80;59.90;;;;;;5091038;28;20607;-83
2022/08/30 06:46:23;;;;;;;6.35;4.50;;;20.80;60.00;;;;;;5092655;28;20823;-83
2022/08/30 06:48:50;;;;;;;5.25;4.20;;;20.90;60.10;;;;;;5085467;28;20192;-85
2022/08/30 06:51:20;;;;;;;6.07;4.47;;;21.10;59.90;;;;;;5090162;28;20962;-83
2022/08/30 06:53:47;;;;;;;6.78;4.50;;;21.20;59.00;;;;;;5092565;28;20210;-83
2022/08/30 06:56:16;;;;;;;6.05;4.45;;;21.20;58.90;;;;;;5101135;28;20192;-82
2022/08/30 06:58:42;;;;;;;5.15;4.60;;;21.40;58.60;;;;;;5092793;28;20206;-85
2022/08/30 07:01:13;;;;;;;5.10;4.68;;;21.30;58.30;;;;;;5088642;28;20190;-82
2022/08/30 07:03:38;;;;;;;4.75;4.35;;;21.50;58.70;;;;;;5089415;28;20208;-83
2022/08/30 07:06:05;;;;;;;7.60;4.78;;;21.50;59.30;;;;;;5086176;28;20189;-82
2022/08/30 07:08:31;;;;;;;5.20;4.70;;;21.60;58.60;;;;;;5086028;28;20204;-83
2022/08/30 07:10:56;;;;;;;5.07;4.68;;;21.80;58.30;;;;;;5093856;28;20214;-83
2022/08/30 07:13:22;;;;;;;5.85;5.03;;;21.90;58.50;;;;;;5088720;28;20216;-83
2022/08/30 07:15:50;;;;;;;5.13;4.63;;;21.70;58.80;;;;;;5089169;28;20190;-83
2022/08/30 07:21:10;;;;;;;6.07;4.57;;;21.90;59.30;;;;;;5095656;28;20215;-83
2022/08/30 07:23:36;;;;;;;5.25;4.75;;;22.00;58.90;;;;;;5087829;28;20206;-82
2022/08/30 07:26:07;;;;;;;5.10;4.63;;;22.00;58.80;;;;;;5087267;28;20196;-83
2022/08/30 07:28:35;;;;;;;5.57;5.05;;;22.00;58.60;;;;;;5090557;28;20187;-83
2022/08/30 07:31:01;;;;;;;5.20;4.80;;;22.20;58.50;;;;;;5084738;28;20756;-84
2022/08/30 07:33:27;;;;;;;5.13;4.63;;;22.40;58.30;;;;;;5090155;28;20206;-83
2022/08/30 07:35:52;;;;;;;5.10;4.70;;;22.50;58.00;;;;;;5091063;28;20195;-83
2022/08/30 07:38:18;;;;;;;5.30;4.80;;;22.60;57.20;;;;;;5069200;28;20186;-84
2022/08/30 07:40:44;;;;;;;8.40;5.63;;;22.70;57.10;;;;;;5089291;28;20191;-84
2022/08/30 07:43:09;;;;;;;7.50;5.05;;;22.90;56.60;;;;;;5093865;28;20213;-83
2022/08/30 07:45:36;;;;;;;7.00;5.22;;;23.00;56.50;;;;;;5083552;28;20673;-84
2022/08/30 07:48:03;;;;;;;5.88;5.28;;;23.10;56.60;;;;;;5088343;28;20923;-84
2022/08/30 07:50:29;;;;;;;5.72;4.90;;;23.20;56.30;;;;;;5089699;28;20214;-83
2022/08/30 07:52:54;;;;;;;7.05;5.22;;;23.30;55.00;;;;;;5095081;28;20187;-85
2022/08/30 07:55:20;;;;;;;6.72;5.60;;;23.50;55.70;;;;;;5094984;28;20199;-85
2022/08/30 07:57:47;;;;;;;7.40;5.93;;;23.60;55.60;;;;;;5103151;28;20201;-85
2022/08/30 08:00:13;;;;;;;5.75;5.15;;;23.70;55.40;;;;;;5086901;28;20191;-86
2022/08/30 08:02:40;;;;;;;6.10;5.60;;;23.70;54.90;;;;;;5095041;28;20183;-84
2022/08/30 08:05:07;;;;;;;6.43;5.60;;;23.80;55.10;;;;;;5094022;28;20207;-84
2022/08/30 08:07:34;;;;;;;6.47;5.45;;;23.90;54.60;;;;;;5087752;28;20654;-84
2022/08/30 08:10:00;;;;;;;6.03;5.43;;;23.80;54.40;;;;;;5102980;28;20226;-83
2022/08/30 08:12:26;;;;;;;6.65;5.75;;;23.70;55.50;;;;;;5092347;28;20194;-85
2022/08/30 08:14:52;;;;;;;6.40;5.72;;;23.80;55.00;;;;;;5090952;28;20682;-84
2022/08/30 08:17:18;;;;;;;6.07;5.38;;;23.80;54.70;;;;;;5093817;28;20179;-85
2022/08/30 08:19:43;;;;;;;6.35;5.82;;;23.90;55.20;;;;;;5091201;28;20315;-83
2022/08/30 08:22:09;;;;;;;5.95;5.45;;;24.00;55.90;;;;;;5081288;28;20219;-81
2022/08/30 08:24:35;;;;;;;7.07;5.40;;;24.00;55.40;;;;;;5083083;28;20210;-82
2022/08/30 08:27:01;;;;;;;6.70;6.00;;;24.20;54.90;;;;;;5090562;28;20240;-83
2022/08/30 08:29:27;;;;;;;6.60;5.68;;;24.10;54.80;;;;;;5083038;28;20643;-83
2022/08/30 08:31:53;;;;;;;6.10;5.60;;;24.40;54.10;;;;;;5090730;28;20695;-84
2022/08/30 08:34:22;;;;;;;5.72;5.22;;;24.40;53.70;;;;;;5085697;28;20934;-83
2022/08/30 08:36:51;;;;;;;5.95;5.18;;;24.40;53.40;;;;;;5087908;28;20187;-84
2022/08/30 08:39:17;;;;;;;7.63;6.35;;;24.40;53.80;;;;;;5086278;28;20192;-84
2022/08/30 08:41:52;;;;;;;9.25;5.65;;;24.60;52.60;;;;;;5090849;28;20300;-82
2022/08/30 08:44:33;;;;;;;8.35;5.32;;;24.70;52.50;;;;;;5086898;28;20266;-83
2022/08/30 08:47:07;;;;;;;6.25;5.05;;;24.60;52.10;;;;;;5085866;28;20214;-84
2022/08/30 08:49:36;;;;;;;6.25;5.63;;;24.70;52.00;;;;;;5085929;28;20201;-84
2022/08/30 08:55:06;;;;;;;7.10;5.88;;;24.80;52.00;;;;;;5089994;28;20230;-82
2022/08/30 08:57:34;;;;;;;8.55;5.30;;;24.90;51.80;;;;;;5082006;28;20183;-84
2022/08/30 09:00:02;;;;;;;8.32;5.28;;;25.20;51.10;;;;;;5069597;28;20653;-84
2022/08/30 09:02:40;;;;;;;8.85;5.60;;;25.10;51.00;;;;;;5088746;28;20784;-84
2022/08/30 09:05:08;;;;;;;6.38;5.40;;;25.20;50.90;;;;;;5076826;28;20237;-83
2022/08/30 09:07:38;;;;;;;6.60;5.50;;;25.40;51.20;;;;;;5084650;28;20197;-83
2022/08/30 09:10:05;;;;;;;6.20;5.55;;;25.50;50.90;;;;;;5087297;28;20198;-84
2022/08/30 09:12:31;;;;;;;7.32;5.22;;;25.60;50.90;;;;;;5083838;28;20241;-83
2022/08/30 09:15:14;;;;;;;6.40;5.80;;;25.80;50.20;;;;;;5084206;28;20222;-85
2022/08/30 09:18:01;;;;;;;26.75;7.65;;;26.00;49.90;;;;;;5093923;28;20175;-84
2022/08/30 09:20:32;;;;;;;9.20;6.70;;;26.30;49.60;;;;;;5086091;28;20627;-83
2022/08/30 09:22:58;;;;;;;21.38;8.18;;;26.40;49.30;;;;;;5085222;28;20187;-83
2022/08/30 09:25:29;;;;;;;13.27;7.65;;;26.50;48.50;;;;;;5089222;28;20264;-83
2022/08/30 09:28:08;;;;;;;62.53;11.60;;;26.60;48.60;;;;;;5088885;28;20207;-84
2022/08/30 09:30:35;;;;;;;31.70;10.20;;;26.70;48.10;;;;;;5085125;28;20217;-84
2022/08/30 09:33:19;;;;;;;8.98;6.10;;;27.00;48.40;;;;;;5086117;28;20183;-83
2022/08/30 09:35:47;;;;;;;11.20;6.25;;;27.30;46.60;;;;;;5092510;28;20742;-84
2022/08/30 09:38:21;;;;;;;8.02;5.68;;;27.30;45.80;;;;;;5091930;28;20192;-85
2022/08/30 09:40:50;;;;;;;7.13;6.20;;;27.40;46.60;;;;;;5094089;28;20627;-84
2022/08/30 09:43:15;;;;;;;12.40;6.50;;;27.50;45.40;;;;;;5086739;28;20632;-84
2022/08/30 09:45:45;;;;;;;5.88;5.38;;;27.40;45.00;;;;;;5092270;28;20234;-84
2022/08/30 09:48:26;;;;;;;6.80;6.15;;;27.40;46.10;;;;;;5086408;28;20190;-83
2022/08/30 09:51:06;;;;;;;7.78;5.65;;;27.60;46.00;;;;;;5092064;28;20826;-84
2022/08/30 09:53:36;;;;;;;6.43;5.80;;;27.70;45.30;;;;;;5089555;28;20207;-83
2022/08/30 09:56:08;;;;;;;6.47;5.88;;;27.80;44.90;;;;;;5091857;28;20190;-84
2022/08/30 09:58:44;;;;;;;7.80;6.10;;;28.20;44.20;;;;;;5089511;28;20183;-84
2022/08/30 10:01:31;;;;;;;7.70;5.95;;;28.40;43.30;;;;;;5092756;28;20276;-84
2022/08/30 10:04:08;;;;;;;6.32;5.65;;;28.50;44.30;;;;;;5082303;28;20207;-83
2022/08/30 10:06:51;;;;;;;7.82;6.15;;;28.70;43.70;;;;;;5088969;28;20212;-83
2022/08/30 10:09:34;;;;;;;6.88;6.35;;;28.90;43.00;;;;;;5093708;28;20190;-83
2022/08/30 10:12:05;;;;;;;6.97;6.38;;;29.00;43.50;;;;;;5085897;28;20543;-83
2022/08/30 10:14:49;;;;;;;6.97;6.40;;;29.10;42.70;;;;;;5093366;28;20570;-82
2022/08/30 10:17:37;;;;;;;7.82;7.13;;;29.30;41.30;;;;;;5093226;28;20176;-82
2022/08/30 10:20:16;;;;;;;7.38;6.43;;;29.40;42.30;;;;;;5091873;28;20179;-84
2022/08/30 10:23:01;;;;;;;7.22;6.10;;;29.60;41.50;;;;;;5091516;28;20193;-82
2022/08/30 10:25:35;;;;;;;6.60;6.15;;;29.70;41.30;;;;;;5077203;28;20195;-84
2022/08/30 10:28:16;;;;;;;7.35;6.68;;;29.70;39.50;;;;;;5091543;28;20660;-83
2022/08/30 10:30:51;;;;;;;8.27;7.57;;;29.70;40.50;;;;;;5092264;28;20214;-84
2022/08/30 10:33:34;;;;;;;7.57;7.00;;;30.00;40.80;;;;;;5086390;28;20206;-84
2022/08/30 10:36:04;;;;;;;7.10;6.60;;;30.20;39.80;;;;;;5093429;28;20170;-83
2022/08/30 10:38:33;;;;;;;7.57;6.97;;;30.30;39.00;;;;;;5094085;28;20179;-83
2022/08/30 10:41:17;;;;;;;7.55;6.85;;;30.30;39.30;;;;;;5092613;28;20218;-83
2022/08/30 10:44:04;;;;;;;7.85;7.25;;;30.40;38.50;;;;;;5088729;28;20206;-84
2022/08/30 10:46:53;;;;;;;7.63;7.00;;;30.20;38.50;;;;;;5090246;28;20201;-85
2022/08/30 10:49:22;;;;;;;7.45;6.95;;;30.30;38.70;;;;;;5094594;28;20203;-84
2022/08/30 10:52:06;;;;;;;7.55;6.95;;;30.60;38.90;;;;;;5096018;28;20250;-86
2022/08/30 10:54:42;;;;;;;7.45;6.80;;;30.90;37.80;;;;;;5086058;28;20199;-84
2022/08/30 10:57:08;;;;;;;8.13;7.35;;;31.00;37.70;;;;;;5087642;28;20540;-84
2022/08/30 10:59:36;;;;;;;7.57;6.97;;;31.40;36.00;;;;;;5091692;28;20651;-84
2022/08/30 11:02:41;;;;;;;7.68;7.18;;;31.50;35.30;;;;;;5091772;28;20240;-83
2022/08/30 11:05:34;;;;;;;8.13;7.25;;;31.40;35.50;;;;;;5052624;28;20211;-82
2022/08/30 11:08:20;;;;;;;7.20;6.70;;;31.60;34.80;;;;;;5055391;28;20180;-82
2022/08/30 11:11:02;;;;;;;8.10;7.35;;;31.80;34.50;;;;;;5082045;28;20246;-83
2022/08/30 11:13:31;;;;;;;7.20;6.63;;;31.70;34.50;;;;;;5089853;28;20286;-83
2022/08/30 11:16:07;;;;;;;7.78;7.18;;;31.50;34.70;;;;;;5081355;28;20183;-85
2022/08/30 11:18:48;;;;;;;8.85;7.00;;;31.50;34.50;;;;;;5089868;28;20677;-83
2022/08/30 11:21:35;;;;;;;8.10;7.50;;;31.60;34.20;;;;;;5095405;28;20229;-83
2022/08/30 11:24:12;;;;;;;7.40;6.95;;;31.50;34.60;;;;;;5078226;28;20257;-84
2022/08/30 11:26:44;;;;;;;7.72;7.22;;;31.30;35.00;;;;;;5083987;28;20190;-84
2022/08/30 11:29:27;;;;;;;7.68;7.18;;;31.10;35.30;;;;;;5089971;28;20198;-84
2022/08/30 11:32:17;;;;;;;7.53;7.00;;;30.90;35.40;;;;;;5079954;28;20210;-84
2022/08/30 11:34:46;;;;;;;7.57;7.00;;;31.10;35.60;;;;;;5088120;28;20710;-84
2022/08/30 11:37:41;;;;;;;7.53;6.90;;;31.50;35.10;;;;;;5093967;28;20199;-85
2022/08/30 11:40:19;;;;;;;8.00;7.40;;;31.70;34.50;;;;;;5085984;28;20765;-84
2022/08/30 11:42:50;;;;;;;8.05;7.32;;;32.00;34.40;;;;;;5090193;28;20183;-84
2022/08/30 11:45:22;;;;;;;7.78;7.18;;;31.90;33.90;;;;;;5095766;28;20202;-84
2022/08/30 11:48:00;;;;;;;7.75;7.25;;;31.70;34.70;;;;;;5088645;28;20230;-84
2022/08/30 11:50:34;;;;;;;7.72;7.20;;;31.70;35.00;;;;;;5094277;28;20214;-85
2022/08/30 11:53:03;;;;;;;7.97;7.38;;;31.80;34.40;;;;;;5084798;28;20723;-84
2022/08/30 11:56:01;;;;;;;7.57;7.07;;;31.90;34.50;;;;;;5086542;28;20179;-84
2022/08/30 11:58:34;;;;;;;10.25;9.57;;;32.00;34.40;;;;;;5077055;28;20255;-84
2022/08/30 12:01:20;;;;;;;7.85;7.22;;;32.40;32.80;;;;;;5084516;28;20191;-85
2022/08/30 12:04:00;;;;;;;8.15;7.57;;;32.60;32.60;;;;;;5090709;28;20215;-85
2022/08/30 12:06:41;;;;;;;8.10;7.55;;;32.90;31.70;;;;;;5087284;28;20182;-85
2022/08/30 12:09:10;;;;;;;7.75;7.15;;;32.80;31.90;;;;;;5087884;28;20187;-85
2022/08/30 12:11:37;;;;;;;7.75;7.32;;;32.70;31.80;;;;;;5088010;28;20218;-85
2022/08/30 12:14:05;;;;;;;7.25;6.85;;;32.70;31.90;;;;;;5095079;28;20191;-84
2022/08/30 12:19:32;;;;;;;8.55;7.95;;;33.10;31.60;;;;;;5092456;28;20204;-85
2022/08/30 12:22:06;;;;;;;8.20;7.68;;;33.50;31.20;;;;;;5083915;28;20187;-85
2022/08/30 12:24:36;;;;;;;7.53;7.13;;;34.00;30.70;;;;;;5089841;28;20214;-84
2022/08/30 12:27:30;;;;;;;8.13;7.63;;;34.40;29.50;;;;;;5088105;28;20190;-85
2022/08/30 12:30:00;;;;;;;7.90;7.30;;;34.30;29.30;;;;;;5085812;28;20237;-85
2022/08/30 12:32:28;;;;;;;7.95;7.22;;;34.40;29.70;;;;;;5093181;28;20179;-85
2022/08/30 12:34:58;;;;;;;8.13;7.55;;;34.40;29.30;;;;;;5091093;28;20195;-85
2022/08/30 12:37:31;;;;;;;8.30;7.65;;;34.70;29.10;;;;;;5084870;28;20202;-83
2022/08/30 12:40:08;;;;;;;8.18;7.60;;;34.40;29.10;;;;;;5089768;28;20222;-84
2022/08/30 12:42:40;;;;;;;8.30;7.80;;;34.40;29.20;;;;;;5091011;28;20218;-84
2022/08/30 12:45:11;;;;;;;8.30;7.80;;;34.50;29.10;;;;;;5084458;28;20944;-84
2022/08/30 12:47:54;;;;;;;8.25;7.70;;;34.50;29.30;;;;;;5088525;28;20186;-82
2022/08/30 12:50:24;;;;;;;8.07;7.47;;;34.80;28.90;;;;;;5089608;28;20690;-84
2022/08/30 12:53:06;;;;;;;8.10;7.60;;;34.90;28.70;;;;;;5088471;28;20180;-84
2022/08/30 12:55:47;;;;;;;7.68;7.18;;;35.00;28.90;;;;;;5086901;28;20189;-83
2022/08/30 12:58:14;;;;;;;8.23;7.65;;;34.90;28.40;;;;;;5080187;28;20193;-84
2022/08/30 13:00:44;;;;;;;8.45;7.75;;;35.00;28.60;;;;;;5089712;28;20191;-84
2022/08/30 13:03:35;;;;;;;8.75;7.85;;;34.80;28.50;;;;;;5085659;28;20190;-84
2022/08/30 13:06:02;;;;;;;8.80;8.25;;;35.10;28.40;;;;;;5087945;28;20190;-84
2022/08/30 13:08:35;;;;;;;8.30;7.68;;;35.10;28.20;;;;;;5092192;28;20182;-84